createdAt,value
2023-05-01T00:02:42.499Z,56.57
2023-05-01T00:05:45.696Z,56.60
2023-05-01T00:08:49.204Z,56.56
2023-05-01T00:11:51.336Z,56.55
2023-05-01T00:14:56.849Z,56.59
2023-05-01T00:17:59.296Z,56.59
2023-05-01T00:21:02.049Z,56.57
2023-05-01T00:24:06.321Z,56.55
2023-05-01T00:27:09.599Z,56.56
2023-05-01T00:30:13.386Z,56.55
2023-05-01T00:33:16.848Z,56.61
2023-05-01T00:36:19.396Z,56.63
2023-05-01T00:39:21.787Z,56.60
2023-05-01T00:42:24.564Z,56.58
2023-05-01T00:45:27.678Z,56.59
2023-05-01T00:48:29.959Z,56.56
2023-05-01T00:51:34.298Z,56.60
2023-05-01T00:54:37.650Z,56.58
2023-05-01T00:57:40.173Z,56.62
2023-05-01T01:00:42.691Z,56.64
2023-05-01T01:03:45.348Z,56.57
2023-05-01T01:07:03.996Z,56.55
2023-05-01T01:10:22.089Z,56.59
2023-05-01T01:13:39.982Z,56.65
2023-05-01T01:16:49.393Z,56.62
2023-05-01T01:20:11.528Z,56.61
2023-05-01T01:23:53.634Z,56.63
2023-05-01T01:27:12.707Z,56.64
2023-05-01T01:30:34.116Z,56.61
2023-05-01T01:34:02.581Z,56.54
2023-05-01T01:37:13.399Z,56.60
2023-05-01T01:40:23.075Z,56.56
2023-05-01T01:43:27.025Z,56.55
2023-05-01T01:46:31.215Z,56.54
2023-05-01T01:49:38.043Z,56.49
2023-05-01T01:52:42.307Z,56.47
2023-05-01T01:55:47.015Z,56.46
2023-05-01T01:58:52.621Z,56.46
2023-05-01T02:01:56.884Z,56.51
2023-05-01T02:05:00.284Z,56.53
2023-05-01T02:08:04.542Z,56.53
2023-05-01T02:11:08.255Z,56.46
2023-05-01T02:14:12.127Z,56.49
2023-05-01T02:17:16.464Z,56.49
2023-05-01T02:20:22.076Z,56.47
2023-05-01T02:23:26.007Z,56.49
2023-05-01T02:26:30.062Z,56.52
2023-05-01T02:29:33.173Z,56.53
2023-05-01T02:32:36.328Z,56.55
2023-05-01T02:35:41.106Z,56.59
2023-05-01T02:38:44.250Z,56.58
2023-05-01T02:41:49.679Z,56.61
2023-05-01T02:45:06.402Z,56.59
2023-05-01T02:48:11.424Z,56.64
2023-05-01T02:51:14.541Z,56.64
2023-05-01T02:54:17.185Z,56.67
2023-05-01T02:57:20.718Z,56.69
2023-05-01T03:00:24.531Z,56.71
2023-05-01T03:03:28.245Z,56.74
2023-05-01T03:06:31.464Z,56.74
2023-05-01T03:09:34.183Z,56.82
2023-05-01T03:12:37.669Z,56.84
2023-05-01T03:15:42.310Z,56.86
2023-05-01T03:18:44.512Z,56.88
2023-05-01T03:21:47.006Z,56.97
2023-05-01T03:24:50.515Z,56.97
2023-05-01T03:27:54.932Z,56.84
2023-05-01T03:30:58.610Z,56.86
2023-05-01T03:34:01.350Z,56.86
2023-05-01T03:37:03.628Z,56.85
2023-05-01T03:40:07.555Z,56.89
2023-05-01T03:43:12.568Z,56.95
2023-05-01T03:46:15.010Z,56.98
2023-05-01T03:49:17.259Z,57.07
2023-05-01T03:52:23.150Z,57.08
2023-05-01T03:55:26.919Z,57.07
2023-05-01T03:58:29.835Z,57.12
2023-05-01T04:01:34.044Z,57.05
2023-05-01T04:04:36.737Z,56.97
2023-05-01T04:07:39.325Z,56.95
2023-05-01T04:10:42.869Z,56.97
2023-05-01T04:13:45.272Z,56.93
2023-05-01T04:16:48.958Z,56.97
2023-05-01T04:19:51.713Z,56.93
2023-05-01T04:22:55.285Z,56.95
2023-05-01T04:25:58.054Z,56.93
2023-05-01T04:29:03.257Z,56.99
2023-05-01T04:32:06.154Z,56.96
2023-05-01T04:35:09.830Z,57.02
2023-05-01T04:38:13.663Z,57.03
2023-05-01T04:41:17.190Z,57.02
2023-05-01T04:44:21.043Z,57.08
2023-05-01T04:47:23.961Z,57.12
2023-05-01T04:50:26.101Z,57.35
2023-05-01T04:53:28.730Z,57.35
2023-05-01T04:56:31.608Z,57.46
2023-05-01T04:59:36.830Z,57.44
2023-05-01T05:02:40.158Z,57.37
2023-05-01T05:05:44.147Z,57.26
2023-05-01T05:08:46.801Z,57.12
2023-05-01T05:11:49.673Z,56.99
2023-05-01T05:14:57.791Z,57.01
2023-05-01T05:18:01.453Z,57.07
2023-05-01T05:21:06.439Z,57.09
2023-05-01T05:24:10.023Z,57.06
2023-05-01T05:27:12.091Z,57.07
2023-05-01T05:30:15.773Z,57.03
2023-05-01T05:33:18.981Z,57.49
2023-05-01T05:36:22.381Z,57.75
2023-05-01T05:39:24.765Z,57.47
2023-05-01T05:42:27.845Z,57.19
2023-05-01T05:45:31.563Z,57.08
2023-05-01T05:48:34.606Z,57.09
2023-05-01T05:51:37.742Z,57.25
2023-05-01T05:54:43.414Z,57.47
2023-05-01T05:57:45.578Z,57.18
2023-05-01T06:00:49.449Z,57.06
2023-05-01T06:03:51.843Z,57.07
2023-05-01T06:06:55.224Z,57.10
2023-05-01T06:10:05.687Z,57.01
2023-05-01T06:13:13.962Z,56.86
2023-05-01T06:16:19.427Z,56.79
2023-05-01T06:19:22.506Z,56.72
2023-05-01T06:22:28.643Z,56.75
2023-05-01T06:25:38.811Z,56.82
2023-05-01T06:28:40.976Z,56.67
2023-05-01T06:31:43.746Z,56.64
2023-05-01T06:34:46.403Z,56.53
2023-05-01T06:37:49.951Z,56.63
2023-05-01T06:40:52.729Z,56.54
2023-05-01T06:43:56.040Z,56.45
2023-05-01T06:46:58.971Z,56.44
2023-05-01T06:50:03.628Z,56.44
2023-05-01T06:53:08.671Z,56.44
2023-05-01T06:56:12.953Z,56.42
2023-05-01T06:59:16.192Z,56.40
2023-05-01T07:02:18.931Z,56.45
2023-05-01T07:05:21.208Z,56.42
2023-05-01T07:08:25.547Z,56.41
2023-05-01T07:11:27.675Z,56.37
2023-05-01T07:14:30.311Z,56.36
2023-05-01T07:17:32.576Z,56.41
2023-05-01T07:20:35.139Z,56.33
2023-05-01T07:23:37.235Z,56.28
2023-05-01T07:26:39.759Z,56.23
2023-05-01T07:29:41.724Z,56.20
2023-05-01T07:32:44.295Z,56.16
2023-05-01T07:35:47.107Z,56.11
2023-05-01T07:38:49.643Z,56.00
2023-05-01T07:41:51.697Z,56.01
2023-05-01T07:44:55.156Z,56.03
2023-05-01T07:47:58.329Z,55.96
2023-05-01T07:51:04.126Z,55.92
2023-05-01T07:54:10.651Z,55.94
2023-05-01T07:57:13.392Z,55.86
2023-05-01T08:00:16.768Z,55.80
2023-05-01T08:03:20.202Z,55.85
2023-05-01T08:06:23.283Z,55.78
2023-05-01T08:09:26.092Z,55.76
2023-05-01T08:12:31.581Z,55.69
2023-05-01T08:15:35.733Z,55.45
2023-05-01T08:18:38.163Z,53.28
2023-05-01T08:21:40.766Z,55.27
2023-05-01T08:24:43.265Z,55.31
2023-05-01T08:27:46.445Z,56.89
2023-05-01T08:30:52.435Z,58.30
2023-05-01T08:33:55.973Z,58.39
2023-05-01T08:36:59.845Z,56.65
2023-05-01T08:40:09.090Z,56.23
2023-05-01T08:43:13.591Z,57.41
2023-05-01T08:46:25.293Z,58.19
2023-05-01T08:49:32.771Z,58.48
2023-05-01T08:52:36.994Z,60.21
2023-05-01T08:55:44.181Z,61.42
2023-05-01T08:58:49.950Z,62.42
2023-05-01T09:01:53.048Z,63.24
2023-05-01T09:04:55.826Z,61.99
2023-05-01T09:07:59.102Z,62.52
2023-05-01T09:11:03.198Z,61.31
2023-05-01T09:14:05.798Z,59.42
2023-05-01T09:17:10.201Z,59.36
2023-05-01T09:20:13.280Z,58.38
2023-05-01T09:23:17.157Z,57.94
2023-05-01T09:26:20.347Z,57.98
2023-05-01T09:29:48.132Z,57.93
2023-05-01T09:33:07.731Z,59.79
2023-05-01T09:36:17.574Z,59.45
2023-05-01T09:39:23.235Z,60.61
2023-05-01T09:42:26.062Z,62.78
2023-05-01T09:45:28.394Z,60.55
2023-05-01T09:48:35.983Z,60.55
2023-05-01T09:51:38.950Z,61.87
2023-05-01T09:54:42.341Z,64.21
2023-05-01T09:57:46.773Z,65.45
2023-05-01T10:00:50.307Z,67.32
2023-05-01T10:03:56.906Z,67.40
2023-05-01T10:07:12.462Z,67.84
2023-05-01T10:10:21.617Z,69.73
2023-05-01T10:13:24.796Z,67.97
2023-05-01T10:16:31.400Z,69.69
2023-05-01T10:19:34.213Z,68.32
2023-05-01T10:22:37.355Z,66.78
2023-05-01T10:25:42.869Z,66.57
2023-05-01T10:28:47.968Z,66.04
2023-05-01T10:31:50.572Z,66.36
2023-05-01T10:35:00.044Z,63.34
2023-05-01T10:38:06.510Z,61.62
2023-05-01T10:41:09.408Z,60.33
2023-05-01T10:44:35.110Z,61.00
2023-05-01T10:47:41.697Z,59.88
2023-05-01T10:51:18.492Z,57.33
2023-05-01T10:54:21.369Z,52.02
2023-05-01T10:57:42.672Z,52.83
2023-05-01T11:00:45.171Z,51.84
2023-05-01T11:03:47.675Z,53.59
2023-05-01T11:07:05.806Z,55.98
2023-05-01T11:10:29.101Z,60.13
2023-05-01T11:14:05.873Z,60.56
2023-05-01T11:17:14.358Z,61.56
2023-05-01T11:20:26.960Z,61.92
2023-05-01T11:23:30.955Z,61.80
2023-05-01T11:26:33.227Z,62.30
2023-05-01T11:29:37.579Z,64.73
2023-05-01T11:32:44.330Z,65.66
2023-05-01T11:35:56.805Z,66.40
2023-05-01T11:39:00.139Z,66.42
2023-05-01T11:42:11.907Z,66.36
2023-05-01T11:45:14.450Z,65.61
2023-05-01T11:48:17.227Z,65.06
2023-05-01T11:51:20.176Z,67.01
2023-05-01T11:54:22.949Z,67.44
2023-05-01T11:57:25.186Z,67.30
2023-05-01T12:00:39.764Z,69.07
2023-05-01T12:03:42.923Z,68.21
2023-05-01T12:06:47.542Z,68.00
2023-05-01T12:09:51.541Z,67.08
2023-05-01T12:12:55.014Z,66.42
2023-05-01T12:15:57.961Z,66.45
2023-05-01T12:19:01.259Z,63.77
2023-05-01T12:22:10.172Z,62.53
2023-05-01T12:25:15.059Z,62.05
2023-05-01T12:28:20.197Z,62.65
2023-05-01T12:31:24.516Z,66.29
2023-05-01T12:34:33.897Z,68.75
2023-05-01T12:37:36.626Z,69.46
2023-05-01T12:40:40.516Z,70.81
2023-05-01T12:43:44.337Z,71.04
2023-05-01T12:46:54.683Z,72.62
2023-05-01T12:50:03.830Z,72.86
2023-05-01T12:53:07.026Z,73.26
2023-05-01T12:56:09.476Z,73.19
2023-05-01T12:59:26.666Z,74.96
2023-05-01T13:02:34.107Z,73.94
2023-05-01T13:05:36.467Z,72.83
2023-05-01T13:08:40.941Z,71.91
2023-05-01T13:11:43.538Z,70.65
2023-05-01T13:14:46.594Z,69.95
2023-05-01T13:17:48.964Z,71.65
2023-05-01T13:20:52.464Z,71.20
2023-05-01T13:23:59.528Z,65.41
2023-05-01T13:27:05.135Z,66.26
2023-05-01T13:30:08.971Z,68.23
2023-05-01T13:33:13.433Z,65.74
2023-05-01T13:36:25.393Z,67.03
2023-05-01T13:39:30.134Z,66.24
2023-05-01T13:42:32.455Z,65.69
2023-05-01T13:45:40.667Z,63.93
2023-05-01T13:48:43.494Z,63.83
2023-05-01T13:51:47.710Z,65.12
2023-05-01T13:54:52.914Z,65.07
2023-05-01T13:57:55.578Z,64.21
2023-05-01T14:00:57.641Z,65.93
2023-05-01T14:04:00.721Z,65.36
2023-05-01T14:07:03.044Z,64.96
2023-05-01T14:10:09.134Z,65.00
2023-05-01T14:13:11.497Z,64.46
2023-05-01T14:16:26.649Z,65.46
2023-05-01T14:19:29.286Z,64.33
2023-05-01T14:22:48.010Z,63.54
2023-05-01T14:25:50.245Z,63.22
2023-05-01T14:28:53.198Z,62.72
2023-05-01T14:31:56.655Z,61.96
2023-05-01T14:34:59.860Z,61.35
2023-05-01T14:38:15.876Z,60.60
2023-05-01T14:41:21.269Z,60.17
2023-05-01T14:44:28.341Z,59.52
2023-05-01T14:47:31.293Z,60.01
2023-05-01T14:50:35.150Z,61.11
2023-05-01T14:53:40.605Z,66.64
2023-05-01T14:56:44.642Z,69.34
2023-05-01T14:59:47.550Z,68.67
2023-05-01T15:02:50.261Z,68.47
2023-05-01T15:05:53.384Z,67.03
2023-05-01T15:08:56.176Z,67.18
2023-05-01T15:11:58.764Z,69.11
2023-05-01T15:15:01.304Z,66.19
2023-05-01T15:18:04.245Z,68.31
2023-05-01T15:21:06.699Z,68.44
2023-05-01T15:24:09.385Z,68.83
2023-05-01T15:27:13.775Z,68.81
2023-05-01T15:30:16.716Z,69.25
2023-05-01T15:33:19.550Z,69.17
2023-05-01T15:36:22.351Z,69.70
2023-05-01T15:39:25.575Z,70.61
2023-05-01T15:42:29.019Z,70.56
2023-05-01T15:45:32.055Z,70.68
2023-05-01T15:48:35.012Z,69.67
2023-05-01T15:51:37.841Z,70.31
2023-05-01T15:54:41.000Z,68.48
2023-05-01T15:57:47.277Z,67.35
2023-05-01T16:00:50.274Z,68.11
2023-05-01T16:03:53.156Z,69.44
2023-05-01T16:06:58.777Z,71.00
2023-05-01T16:10:02.657Z,70.87
2023-05-01T16:13:06.822Z,69.62
2023-05-01T16:16:14.611Z,71.32
2023-05-01T16:19:19.832Z,70.37
2023-05-01T16:22:22.113Z,70.54
2023-05-01T16:25:24.641Z,71.17
2023-05-01T16:28:26.912Z,70.79
2023-05-01T16:31:40.600Z,70.81
2023-05-01T16:34:43.572Z,69.95
2023-05-01T16:37:46.364Z,70.83
2023-05-01T16:40:49.540Z,70.68
2023-05-01T16:43:52.351Z,70.40
2023-05-01T16:47:03.615Z,71.34
2023-05-01T16:50:10.089Z,72.15
2023-05-01T16:53:12.522Z,71.68
2023-05-01T16:56:17.264Z,72.35
2023-05-01T16:59:19.693Z,72.85
2023-05-01T17:02:22.808Z,73.46
2023-05-01T17:05:25.850Z,74.08
2023-05-01T17:08:31.024Z,73.35
2023-05-01T17:11:33.383Z,74.05
2023-05-01T17:14:35.883Z,74.24
2023-05-01T17:17:37.976Z,74.53
2023-05-01T17:20:42.544Z,74.38
2023-05-01T17:23:44.869Z,74.47
2023-05-01T17:26:48.028Z,74.35
2023-05-01T17:29:50.081Z,73.79
2023-05-01T17:32:53.128Z,74.61
2023-05-01T17:35:57.164Z,75.30
2023-05-01T17:39:01.589Z,76.60
2023-05-01T17:42:04.417Z,76.68
2023-05-01T17:45:15.565Z,76.88
2023-05-01T17:48:19.806Z,77.06
2023-05-01T17:51:30.568Z,77.62
2023-05-01T17:54:32.979Z,77.28
2023-05-01T17:57:35.544Z,77.41
2023-05-01T18:00:37.893Z,77.39
2023-05-01T18:03:40.701Z,77.52
2023-05-01T18:06:43.011Z,77.20
2023-05-01T18:09:45.630Z,77.42
2023-05-01T18:12:49.977Z,77.92
2023-05-01T18:15:53.603Z,77.53
2023-05-01T18:18:58.944Z,78.04
2023-05-01T18:22:03.570Z,78.73
2023-05-01T18:25:06.759Z,80.90
2023-05-01T18:28:09.171Z,82.07
2023-05-01T18:31:11.991Z,82.90
2023-05-01T18:34:15.112Z,83.40
2023-05-01T18:37:18.443Z,83.93
2023-05-01T18:40:21.471Z,82.84
2023-05-01T18:43:24.717Z,80.63
2023-05-01T18:46:27.312Z,79.62
2023-05-01T18:49:30.328Z,79.99
2023-05-01T18:52:33.367Z,82.32
2023-05-01T18:55:37.011Z,83.92
2023-05-01T18:58:40.418Z,85.39
2023-05-01T19:01:42.778Z,86.59
2023-05-01T19:04:56.025Z,87.64
2023-05-01T19:08:02.126Z,88.05
2023-05-01T19:11:05.312Z,87.93
2023-05-01T19:14:07.440Z,87.83
2023-05-01T19:17:11.147Z,88.06
2023-05-01T19:20:13.472Z,88.23
2023-05-01T19:23:17.133Z,88.29
2023-05-01T19:26:19.903Z,88.27
2023-05-01T19:29:22.719Z,88.22
2023-05-01T19:32:25.293Z,86.54
2023-05-01T19:35:29.137Z,85.39
2023-05-01T19:38:31.269Z,84.59
2023-05-01T19:41:33.905Z,84.03
2023-05-01T19:44:36.258Z,84.57
2023-05-01T19:47:39.328Z,84.61
2023-05-01T19:50:43.283Z,84.53
2023-05-01T19:53:45.803Z,84.05
2023-05-01T19:56:50.786Z,83.82
2023-05-01T19:59:55.404Z,83.74
2023-05-01T20:03:01.007Z,80.75
2023-05-01T20:06:03.720Z,81.50
2023-05-01T20:09:07.044Z,79.73
2023-05-01T20:12:09.772Z,81.70
2023-05-01T20:15:12.465Z,83.28
2023-05-01T20:18:16.918Z,83.91
2023-05-01T20:21:20.083Z,84.41
2023-05-01T20:24:23.214Z,84.65
2023-05-01T20:27:26.445Z,84.58
2023-05-01T20:30:30.684Z,84.91
2023-05-01T20:33:33.009Z,85.09
2023-05-01T20:36:36.373Z,84.98
2023-05-01T20:39:39.093Z,85.03
2023-05-01T20:42:41.640Z,84.88
2023-05-01T20:45:43.944Z,83.83
2023-05-01T20:48:47.986Z,83.73
2023-05-01T20:51:51.047Z,83.80
2023-05-01T20:54:54.545Z,84.38
2023-05-01T20:57:57.051Z,84.70
2023-05-01T21:01:01.523Z,84.37
2023-05-01T21:04:03.854Z,84.61
2023-05-01T21:07:06.722Z,84.62
2023-05-01T21:10:14.530Z,84.43
2023-05-01T21:13:18.991Z,83.39
2023-05-01T21:16:22.301Z,82.13
2023-05-01T21:19:24.994Z,82.63
2023-05-01T21:22:27.609Z,83.45
2023-05-01T21:25:32.297Z,80.63
2023-05-01T21:28:35.093Z,78.49
2023-05-01T21:31:39.653Z,78.01
2023-05-01T21:34:41.858Z,76.38
2023-05-01T21:37:45.320Z,72.20
2023-05-01T21:40:47.500Z,69.01
2023-05-01T21:43:50.370Z,68.25
2023-05-01T21:46:56.422Z,67.71
2023-05-01T21:49:59.280Z,70.75
2023-05-01T21:53:03.046Z,75.13
2023-05-01T21:56:07.122Z,76.95
2023-05-01T21:59:09.134Z,76.95
2023-05-01T22:02:12.313Z,75.08
2023-05-01T22:05:18.331Z,71.07
2023-05-01T22:08:20.817Z,72.75
2023-05-01T22:11:24.450Z,74.58
2023-05-01T22:14:36.640Z,76.43
2023-05-01T22:17:49.259Z,74.82
2023-05-01T22:20:52.652Z,74.31
2023-05-01T22:23:55.877Z,76.54
2023-05-01T22:26:58.386Z,77.09
2023-05-01T22:30:01.644Z,77.39
2023-05-01T22:33:04.666Z,78.41
2023-05-01T22:36:07.592Z,79.18
2023-05-01T22:39:10.265Z,79.98
2023-05-01T22:42:12.454Z,82.68
2023-05-01T22:45:15.345Z,82.86
2023-05-01T22:48:18.606Z,83.61
2023-05-01T22:51:22.045Z,84.23
2023-05-01T22:54:25.011Z,84.66
2023-05-01T22:57:27.442Z,85.15
2023-05-01T23:00:30.134Z,85.01
2023-05-01T23:03:34.101Z,85.20
2023-05-01T23:06:38.512Z,85.63
2023-05-01T23:09:41.666Z,85.55
2023-05-01T23:12:45.657Z,85.65
2023-05-01T23:15:50.430Z,85.32
2023-05-01T23:18:52.740Z,85.97
2023-05-01T23:22:08.845Z,86.24
2023-05-01T23:25:13.947Z,86.41
2023-05-01T23:28:26.774Z,86.45
2023-05-01T23:31:29.506Z,86.59
2023-05-01T23:34:32.578Z,86.48
2023-05-01T23:37:35.929Z,86.73
2023-05-01T23:40:38.593Z,87.14
2023-05-01T23:43:40.993Z,87.60
2023-05-01T23:46:43.968Z,87.60
2023-05-01T23:49:47.529Z,87.71
2023-05-01T23:52:50.101Z,87.97
2023-05-01T23:55:52.201Z,88.03
2023-05-01T23:58:54.781Z,87.76
